Time;durP1;ratioP1;P1;durP2;ratioP2;P2;SDS_P1;SDS_P2;PMS_P1;PMS_P2;Temp;Humidity;BMP_temperature;BMP_pressure;BME280_temperature;BME280_humidity;BME280_pressure;Samples;Min_cycle;Max_cycle;Signal;HPM_P1;HPM_P2
2023/03/24 00:02:24;;;;;;;11.83;11.33;;;12.90;99.90;;;;;;4798251;29;20526;-47
2023/03/24 00:04:52;;;;;;;12.60;11.90;;;13.00;99.90;;;;;;4801100;29;20198;-48
2023/03/24 00:07:18;;;;;;;12.43;11.73;;;13.00;99.90;;;;;;4800828;29;20183;-46
2023/03/24 00:09:44;;;;;;;12.10;11.43;;;13.00;99.90;;;;;;4803981;29;20465;-45
2023/03/24 00:12:12;;;;;;;12.63;11.83;;;13.00;99.90;;;;;;4801066;29;20448;-51
2023/03/24 00:14:39;;;;;;;13.13;12.43;;;13.10;99.90;;;;;;4804481;29;20478;-45
2023/03/24 00:17:16;;;;;;;12.23;11.53;;;13.10;99.90;;;;;;4795374;29;20479;-42
2023/03/24 00:19:44;;;;;;;12.27;11.57;;;13.10;99.90;;;;;;4806487;29;21030;-42
2023/03/24 00:22:14;;;;;;;12.43;11.83;;;13.10;99.90;;;;;;4809220;29;21311;-41
2023/03/24 00:24:41;;;;;;;12.13;11.43;;;13.10;99.90;;;;;;4803923;29;20487;-42
2023/03/24 00:27:07;;;;;;;12.60;11.93;;;13.10;99.90;;;;;;4801928;29;20969;-42
2023/03/24 00:29:35;;;;;;;13.17;12.40;;;13.10;99.90;;;;;;4805281;29;20485;-42
2023/03/24 00:32:00;;;;;;;12.80;12.00;;;13.10;99.90;;;;;;4801663;29;20452;-45
2023/03/24 00:34:27;;;;;;;13.80;12.97;;;13.10;99.90;;;;;;4805968;29;20531;-42
2023/03/24 00:36:52;;;;;;;12.93;12.13;;;13.10;99.90;;;;;;4804345;29;20240;-40
2023/03/24 00:39:19;;;;;;;13.27;12.27;;;13.20;99.90;;;;;;4803670;29;20456;-42
2023/03/24 00:41:46;;;;;;;13.03;12.33;;;13.10;99.90;;;;;;4803384;29;20183;-45
2023/03/24 00:44:18;;;;;;;13.40;12.70;;;13.20;99.90;;;;;;4802408;29;20455;-42
2023/03/24 00:46:55;;;;;;;14.50;13.47;;;13.20;99.90;;;;;;4798730;29;20454;-42
2023/03/24 00:49:41;;;;;;;12.93;12.13;;;13.20;99.90;;;;;;4810678;29;20435;-43
2023/03/24 00:52:19;;;;;;;13.53;12.67;;;13.20;99.90;;;;;;4803047;29;20784;-40
2023/03/24 00:54:47;;;;;;;13.50;12.70;;;13.30;99.90;;;;;;4815486;29;20438;-42
2023/03/24 00:57:20;;;;;;;13.23;12.53;;;13.20;99.90;;;;;;4807113;29;20930;-42
2023/03/24 00:59:49;;;;;;;13.10;12.40;;;13.30;99.90;;;;;;4803509;29;20478;-42
2023/03/24 01:02:21;;;;;;;13.47;12.53;;;13.30;99.90;;;;;;4802539;29;20439;-41
2023/03/24 01:04:52;;;;;;;13.00;12.20;;;13.40;99.90;;;;;;4805890;29;20443;-42
2023/03/24 01:07:19;;;;;;;13.63;12.73;;;13.40;99.90;;;;;;4808041;29;20429;-43
2023/03/24 01:09:50;;;;;;;12.90;12.10;;;13.50;99.90;;;;;;4805055;29;20981;-40
2023/03/24 01:12:18;;;;;;;12.83;12.13;;;13.50;99.90;;;;;;4805394;29;20479;-41
2023/03/24 01:14:45;;;;;;;12.73;12.03;;;13.50;99.90;;;;;;4792040;29;20448;-44
2023/03/24 01:17:11;;;;;;;13.07;12.37;;;13.60;99.90;;;;;;4801031;29;20486;-45
2023/03/24 01:19:36;;;;;;;12.93;12.10;;;13.60;99.90;;;;;;4803428;29;20758;-43
2023/03/24 01:22:02;;;;;;;13.43;12.70;;;13.70;99.90;;;;;;4806682;29;20451;-45
2023/03/24 01:24:28;;;;;;;13.00;12.30;;;13.60;99.90;;;;;;4802104;29;20194;-41
2023/03/24 01:26:54;;;;;;;12.90;12.20;;;13.70;99.90;;;;;;4800758;29;20195;-42
2023/03/24 01:29:19;;;;;;;13.53;12.67;;;13.70;99.90;;;;;;4802287;29;20195;-40
2023/03/24 01:31:45;;;;;;;13.23;12.53;;;13.70;99.90;;;;;;4801983;29;20275;-42
2023/03/24 01:34:10;;;;;;;13.07;12.27;;;13.70;99.90;;;;;;4800843;29;20192;-41
2023/03/24 01:36:36;;;;;;;13.43;12.73;;;13.70;99.90;;;;;;4803160;29;20244;-41
2023/03/24 01:39:02;;;;;;;12.77;12.00;;;13.70;99.90;;;;;;4802148;29;21043;-41
2023/03/24 01:41:34;;;;;;;13.30;12.60;;;13.70;99.90;;;;;;4813052;29;20585;-42
2023/03/24 01:44:00;;;;;;;12.70;12.00;;;13.70;99.90;;;;;;4801916;29;20439;-41
2023/03/24 01:46:28;;;;;;;12.80;12.10;;;13.70;99.90;;;;;;4810461;29;20450;-41
2023/03/24 01:49:01;;;;;;;13.87;12.97;;;13.70;99.90;;;;;;4800914;29;20190;-43
2023/03/24 01:51:33;;;;;;;13.00;12.30;;;13.60;99.90;;;;;;4791505;29;20930;-42
2023/03/24 01:54:07;;;;;;;13.10;12.40;;;13.60;99.90;;;;;;4809682;29;20542;-42
2023/03/24 01:56:37;;;;;;;13.37;12.57;;;13.60;99.90;;;;;;4808147;29;21088;-41
2023/03/24 01:59:17;;;;;;;13.30;12.50;;;13.60;99.90;;;;;;4811011;29;20444;-40
2023/03/24 02:01:44;;;;;;;12.70;12.00;;;13.60;99.90;;;;;;4801272;29;20447;-42
2023/03/24 02:04:10;;;;;;;13.30;12.60;;;13.60;99.90;;;;;;4811383;29;20447;-43
2023/03/24 02:06:40;;;;;;;13.17;12.47;;;13.70;99.90;;;;;;4811580;29;20443;-41
2023/03/24 02:09:07;;;;;;;12.93;12.23;;;13.70;99.90;;;;;;4808429;29;20431;-43
2023/03/24 02:11:35;;;;;;;13.20;12.50;;;13.80;99.90;;;;;;4803822;29;20455;-42
2023/03/24 02:14:02;;;;;;;13.17;12.47;;;13.80;99.90;;;;;;4801426;29;20515;-43
2023/03/24 02:17:07;;;;;;;13.00;12.30;;;13.70;99.90;;;;;;4800774;29;20509;-42
2023/03/24 02:19:43;;;;;;;13.07;12.20;;;13.80;99.90;;;;;;4801965;29;20921;-42
2023/03/24 02:22:30;;;;;;;13.50;12.70;;;13.70;99.90;;;;;;4803457;29;20497;-43
2023/03/24 02:25:15;;;;;;;13.03;12.23;;;13.70;99.90;;;;;;4801830;29;20619;-43
2023/03/24 02:28:05;;;;;;;12.03;11.40;;;13.70;99.90;;;;;;4799730;29;20949;-43
2023/03/24 02:31:08;;;;;;;12.83;12.13;;;13.80;99.90;;;;;;4801579;29;20436;-45
2023/03/24 02:33:52;;;;;;;12.93;12.03;;;13.80;99.90;;;;;;4803480;29;20447;-40
2023/03/24 02:36:41;;;;;;;13.30;12.50;;;13.80;99.90;;;;;;4799231;29;20519;-41
2023/03/24 02:39:25;;;;;;;14.00;13.17;;;13.80;99.90;;;;;;4795699;29;20440;-40
2023/03/24 02:42:24;;;;;;;13.43;12.73;;;13.70;99.90;;;;;;4792832;29;20443;-43
2023/03/24 02:45:20;;;;;;;12.70;12.10;;;13.70;99.90;;;;;;4788969;29;20427;-42
2023/03/24 02:48:13;;;;;;;13.10;12.40;;;13.60;99.90;;;;;;4809587;29;20439;-43
2023/03/24 02:50:55;;;;;;;13.50;12.70;;;13.60;99.90;;;;;;4784737;29;20531;-42
2023/03/24 02:53:30;;;;;;;12.93;12.23;;;13.60;99.90;;;;;;4805503;29;20962;-42
2023/03/24 02:56:11;;;;;;;13.40;12.70;;;13.50;99.90;;;;;;4800568;29;20487;-43
2023/03/24 02:58:43;;;;;;;13.47;12.57;;;13.50;99.90;;;;;;4799158;29;20444;-42
2023/03/24 03:01:19;;;;;;;12.93;12.23;;;13.40;99.90;;;;;;4801744;29;20428;-44
2023/03/24 03:03:52;;;;;;;12.93;12.23;;;13.40;99.90;;;;;;4790704;29;20455;-42
2023/03/24 03:06:28;;;;;;;13.23;12.43;;;13.40;99.90;;;;;;4801008;29;20428;-41
2023/03/24 03:08:57;;;;;;;12.47;11.77;;;13.40;99.90;;;;;;4801226;29;20416;-45
2023/03/24 03:11:23;;;;;;;13.23;12.53;;;13.30;99.90;;;;;;4783109;29;20447;-41
2023/03/24 03:13:59;;;;;;;13.07;12.40;;;13.30;99.90;;;;;;4801024;29;20508;-44
2023/03/24 03:16:37;;;;;;;13.20;12.50;;;13.30;99.90;;;;;;4788833;29;20992;-43
2023/03/24 03:19:12;;;;;;;12.60;11.90;;;13.30;99.90;;;;;;4796929;29;20420;-40
2023/03/24 03:21:41;;;;;;;13.20;12.40;;;13.20;99.90;;;;;;4791536;29;20443;-41
2023/03/24 03:24:15;;;;;;;13.40;12.60;;;13.30;99.90;;;;;;4800477;29;20448;-41
2023/03/24 03:26:44;;;;;;;13.20;12.47;;;13.20;99.90;;;;;;4799888;29;21107;-41
2023/03/24 03:29:16;;;;;;;13.10;12.10;;;13.30;99.90;;;;;;4800975;29;20476;-42
2023/03/24 03:31:49;;;;;;;13.70;12.60;;;13.40;99.90;;;;;;4800022;29;20870;-42
2023/03/24 03:34:21;;;;;;;12.50;11.87;;;13.40;99.90;;;;;;4803269;29;20484;-43
2023/03/24 03:37:09;;;;;;;13.47;12.33;;;13.40;99.90;;;;;;4802057;29;20491;-41
2023/03/24 03:39:52;;;;;;;13.20;12.40;;;13.40;99.90;;;;;;4798662;29;21086;-46
2023/03/24 03:42:18;;;;;;;13.40;12.40;;;13.40;99.90;;;;;;4801902;29;20507;-46
2023/03/24 03:44:44;;;;;;;13.57;12.87;;;13.40;99.90;;;;;;4801200;29;20424;-48
2023/03/24 03:47:10;;;;;;;13.53;12.73;;;13.40;99.90;;;;;;4799650;29;20476;-47
2023/03/24 03:49:36;;;;;;;13.23;12.53;;;13.30;99.90;;;;;;4801880;29;20786;-48
2023/03/24 03:52:02;;;;;;;14.17;13.30;;;13.30;99.90;;;;;;4803107;29;20906;-47
2023/03/24 03:54:30;;;;;;;14.00;13.20;;;13.30;99.90;;;;;;4804017;29;20458;-46
2023/03/24 03:56:57;;;;;;;13.50;12.80;;;13.20;99.90;;;;;;4802961;29;20464;-47
2023/03/24 03:59:43;;;;;;;13.97;13.17;;;13.20;99.90;;;;;;4802749;29;20454;-50
2023/03/24 04:02:35;;;;;;;14.23;13.33;;;13.20;99.90;;;;;;4788534;29;20531;-46
2023/03/24 04:05:12;;;;;;;14.97;14.07;;;13.20;99.90;;;;;;4808773;29;20469;-47
2023/03/24 04:08:15;;;;;;;13.80;13.00;;;13.20;99.90;;;;;;4795905;29;20546;-48
2023/03/24 04:10:59;;;;;;;14.10;13.20;;;13.10;99.90;;;;;;4807971;29;20439;-46
2023/03/24 04:13:44;;;;;;;13.40;12.70;;;13.10;99.90;;;;;;4803911;29;20479;-45
2023/03/24 04:16:28;;;;;;;13.63;12.93;;;13.10;99.90;;;;;;4807678;29;20464;-45
2023/03/24 04:19:18;;;;;;;13.80;13.00;;;13.10;99.90;;;;;;4803636;29;20931;-47
2023/03/24 04:21:52;;;;;;;13.40;12.60;;;13.10;99.90;;;;;;4802545;29;20448;-47
2023/03/24 04:24:26;;;;;;;14.17;13.33;;;13.10;99.90;;;;;;4791965;29;20427;-48
2023/03/24 04:27:26;;;;;;;14.00;13.20;;;13.00;99.90;;;;;;4807276;29;20806;-45
2023/03/24 04:30:25;;;;;;;14.03;13.23;;;13.10;99.90;;;;;;4786155;29;20564;-46
2023/03/24 04:32:57;;;;;;;13.60;12.90;;;13.10;99.90;;;;;;4801413;29;20444;-50
2023/03/24 04:35:34;;;;;;;14.60;13.80;;;13.10;99.90;;;;;;4806033;29;20482;-47
2023/03/24 04:38:09;;;;;;;13.90;13.20;;;13.10;99.90;;;;;;4803645;29;20531;-46
2023/03/24 04:40:40;;;;;;;14.53;13.73;;;13.10;99.90;;;;;;4805796;29;20466;-48
2023/03/24 04:43:12;;;;;;;14.20;13.37;;;13.10;99.90;;;;;;4802844;29;21014;-46
2023/03/24 04:45:38;;;;;;;14.30;13.50;;;13.10;99.90;;;;;;4804844;29;20450;-46
2023/03/24 04:48:07;;;;;;;14.10;13.30;;;13.10;99.90;;;;;;4808071;29;20808;-47
2023/03/24 04:50:41;;;;;;;14.40;13.60;;;13.10;99.90;;;;;;4801900;29;20442;-50
2023/03/24 04:53:09;;;;;;;13.10;12.40;;;13.10;99.90;;;;;;4802959;29;20741;-48
2023/03/24 04:55:59;;;;;;;12.50;11.80;;;13.00;99.90;;;;;;4801388;29;20468;-48
2023/03/24 04:58:25;;;;;;;13.23;12.50;;;13.10;99.90;;;;;;4802921;29;20448;-47
2023/03/24 05:00:51;;;;;;;14.07;13.20;;;13.10;99.90;;;;;;4800167;29;20939;-44
2023/03/24 05:03:18;;;;;;;14.53;13.73;;;13.00;99.90;;;;;;4803600;29;20662;-43
2023/03/24 05:05:47;;;;;;;14.57;13.67;;;13.10;99.90;;;;;;4796115;29;20474;-47
2023/03/24 05:08:13;;;;;;;13.73;12.80;;;13.10;99.90;;;;;;4813492;29;20942;-47
2023/03/24 05:10:38;;;;;;;15.33;14.43;;;13.10;99.90;;;;;;4792097;29;20454;-50
2023/03/24 05:13:05;;;;;;;14.50;13.60;;;13.10;99.90;;;;;;4807362;29;20513;-45
2023/03/24 05:15:31;;;;;;;15.23;14.33;;;13.10;99.90;;;;;;4798547;29;20222;-46
2023/03/24 05:17:57;;;;;;;14.03;13.13;;;13.10;99.90;;;;;;4794193;29;20449;-47
2023/03/24 05:20:24;;;;;;;14.67;13.80;;;13.10;99.90;;;;;;4792566;29;21131;-47
2023/03/24 05:22:50;;;;;;;14.50;13.60;;;13.20;99.90;;;;;;4791586;29;20231;-48
2023/03/24 05:25:16;;;;;;;15.77;14.67;;;13.20;99.90;;;;;;4792749;29;21088;-45
2023/03/24 05:27:42;;;;;;;14.93;13.83;;;13.30;99.90;;;;;;4794169;29;20998;-47
2023/03/24 05:30:09;;;;;;;15.13;14.07;;;13.30;99.90;;;;;;4792668;29;20444;-49
2023/03/24 05:32:35;;;;;;;14.77;13.87;;;13.40;99.90;;;;;;4793191;29;21406;-51
2023/03/24 05:35:00;;;;;;;14.20;13.20;;;13.40;99.90;;;;;;4793761;29;20460;-46
2023/03/24 05:37:26;;;;;;;14.80;13.80;;;13.50;99.90;;;;;;4793019;29;21432;-47
2023/03/24 05:39:52;;;;;;;14.87;13.97;;;13.50;99.90;;;;;;4793929;29;20195;-46
2023/03/24 05:42:19;;;;;;;14.50;13.67;;;13.60;99.90;;;;;;4792902;29;20643;-41
2023/03/24 05:44:45;;;;;;;15.47;14.37;;;13.60;99.90;;;;;;4794935;29;20432;-42
2023/03/24 05:47:14;;;;;;;14.47;13.57;;;13.60;99.90;;;;;;4793600;29;20532;-42
2023/03/24 05:49:44;;;;;;;14.40;13.50;;;13.60;99.90;;;;;;4793865;29;21331;-43
2023/03/24 05:52:11;;;;;;;15.70;14.70;;;13.60;99.90;;;;;;4792926;29;20451;-42
2023/03/24 05:54:38;;;;;;;14.87;13.77;;;13.60;99.90;;;;;;4793953;29;20672;-41
2023/03/24 05:57:06;;;;;;;14.37;13.57;;;13.60;99.90;;;;;;4777638;29;20494;-41
2023/03/24 05:59:33;;;;;;;15.83;14.53;;;13.60;99.90;;;;;;4793172;29;20469;-41
2023/03/24 06:01:58;;;;;;;16.13;14.63;;;13.60;99.90;;;;;;4790784;29;20455;-40
2023/03/24 06:04:28;;;;;;;15.13;14.03;;;13.70;99.90;;;;;;4777812;29;21771;-44
2023/03/24 06:06:54;;;;;;;14.23;13.10;;;13.70;99.90;;;;;;4777384;29;20443;-44
2023/03/24 06:09:20;;;;;;;15.03;14.03;;;13.70;99.90;;;;;;4793996;29;20436;-44
2023/03/24 06:11:46;;;;;;;14.80;13.80;;;13.80;99.90;;;;;;4793276;29;20480;-42
2023/03/24 06:14:12;;;;;;;16.10;15.10;;;13.70;99.90;;;;;;4793683;29;20534;-43
2023/03/24 06:16:37;;;;;;;16.07;14.87;;;13.70;99.90;;;;;;4793400;29;20230;-41
2023/03/24 06:19:05;;;;;;;15.70;14.70;;;13.70;99.90;;;;;;4793922;29;20424;-42
2023/03/24 06:21:32;;;;;;;14.17;13.27;;;13.70;99.90;;;;;;4792635;29;20545;-44
2023/03/24 06:23:58;;;;;;;14.93;14.03;;;13.60;99.90;;;;;;4793423;29;21046;-46
2023/03/24 06:26:24;;;;;;;14.67;13.87;;;13.50;99.90;;;;;;4792927;29;20961;-48
2023/03/24 06:28:53;;;;;;;15.70;14.70;;;13.60;99.90;;;;;;4794184;29;20792;-48
2023/03/24 06:31:20;;;;;;;15.87;14.77;;;13.50;99.90;;;;;;4792867;29;20450;-48
2023/03/24 06:33:47;;;;;;;16.10;15.00;;;13.50;99.90;;;;;;4792965;29;20440;-48
2023/03/24 06:36:14;;;;;;;15.00;14.10;;;13.50;99.90;;;;;;4793215;29;20495;-46
2023/03/24 06:38:41;;;;;;;15.07;14.07;;;13.50;99.90;;;;;;4793452;29;20459;-48
2023/03/24 06:41:07;;;;;;;15.33;14.33;;;13.60;99.90;;;;;;4792998;29;20535;-47
2023/03/24 06:43:33;;;;;;;15.83;14.90;;;13.60;99.90;;;;;;4793245;29;20730;-48
2023/03/24 06:45:59;;;;;;;17.23;15.93;;;13.60;99.90;;;;;;4793765;29;20450;-49
2023/03/24 06:48:25;;;;;;;14.90;14.00;;;13.60;99.90;;;;;;4792770;29;20423;-47
2023/03/24 06:50:52;;;;;;;15.13;14.13;;;13.70;99.90;;;;;;4792570;29;20424;-46
2023/03/24 06:53:20;;;;;;;13.77;12.87;;;13.70;99.90;;;;;;4793155;29;21010;-48
2023/03/24 06:55:49;;;;;;;13.20;12.30;;;13.80;99.90;;;;;;4792985;29;20895;-46
2023/03/24 06:58:16;;;;;;;13.30;12.60;;;13.80;99.90;;;;;;4793433;29;20488;-47
2023/03/24 07:00:43;;;;;;;14.30;13.20;;;13.90;99.90;;;;;;4792008;29;20532;-49
2023/03/24 07:03:12;;;;;;;13.40;12.70;;;14.00;99.90;;;;;;4791512;29;20529;-47
2023/03/24 07:05:43;;;;;;;13.27;12.27;;;14.10;99.90;;;;;;4791842;29;20484;-50
2023/03/24 07:08:10;;;;;;;13.23;12.50;;;14.10;99.90;;;;;;4791746;29;20562;-46
2023/03/24 07:10:41;;;;;;;13.77;12.87;;;14.20;99.90;;;;;;4792410;29;20455;-49
2023/03/24 07:13:07;;;;;;;14.60;13.70;;;14.30;99.90;;;;;;4792647;29;20517;-50
2023/03/24 07:15:33;;;;;;;14.23;13.50;;;14.30;99.90;;;;;;4793029;29;20554;-47
2023/03/24 07:17:59;;;;;;;13.37;12.57;;;14.40;99.90;;;;;;4792620;29;20511;-51
2023/03/24 07:20:25;;;;;;;14.10;13.30;;;14.40;99.90;;;;;;4792833;29;20424;-47
2023/03/24 07:22:55;;;;;;;14.83;14.03;;;14.50;99.90;;;;;;4792145;29;20442;-50
2023/03/24 07:25:21;;;;;;;13.73;12.83;;;14.60;99.90;;;;;;4794700;29;20734;-47
2023/03/24 07:27:47;;;;;;;13.77;12.97;;;14.60;99.90;;;;;;4796316;29;20468;-45
2023/03/24 07:30:13;;;;;;;13.83;13.03;;;14.70;99.90;;;;;;4796527;29;20544;-48
2023/03/24 07:32:39;;;;;;;14.40;13.47;;;14.70;99.90;;;;;;4796480;29;20194;-49
2023/03/24 07:35:06;;;;;;;12.93;12.13;;;14.80;99.90;;;;;;4796424;29;21153;-47
2023/03/24 07:37:32;;;;;;;14.13;13.43;;;14.90;99.90;;;;;;4796338;29;20483;-46
2023/03/24 07:39:58;;;;;;;14.63;13.83;;;15.00;99.90;;;;;;4796242;29;20420;-50
2023/03/24 07:42:24;;;;;;;13.90;13.20;;;15.10;99.90;;;;;;4796424;29;20220;-47
2023/03/24 07:44:50;;;;;;;14.57;13.67;;;15.20;99.90;;;;;;4796364;29;20636;-47
2023/03/24 07:47:16;;;;;;;13.10;12.40;;;15.30;99.90;;;;;;4796272;29;20251;-44
2023/03/24 07:49:42;;;;;;;12.40;11.60;;;15.40;99.90;;;;;;4796353;29;20436;-50
2023/03/24 07:52:07;;;;;;;14.60;13.80;;;15.40;99.90;;;;;;4795161;29;20452;-47
2023/03/24 07:54:33;;;;;;;14.90;14.00;;;15.50;99.90;;;;;;4779732;29;20238;-49
2023/03/24 07:56:59;;;;;;;14.97;13.97;;;15.50;99.90;;;;;;4795772;29;20226;-47
2023/03/24 07:59:26;;;;;;;14.13;13.10;;;15.60;99.90;;;;;;4795756;29;20641;-51
2023/03/24 08:01:52;;;;;;;13.63;12.93;;;15.70;99.90;;;;;;4795899;29;20435;-47
2023/03/24 08:04:18;;;;;;;13.30;12.47;;;15.80;99.90;;;;;;4779398;29;20986;-49
2023/03/24 08:06:43;;;;;;;12.70;12.00;;;16.00;99.90;;;;;;4795300;29;20440;-49
2023/03/24 08:09:10;;;;;;;14.20;13.30;;;16.10;99.90;;;;;;4795651;29;20269;-45
2023/03/24 08:11:36;;;;;;;12.53;11.93;;;16.30;99.90;;;;;;4795552;29;20190;-46
2023/03/24 08:14:01;;;;;;;11.60;10.90;;;16.40;99.90;;;;;;4795751;29;20443;-47
2023/03/24 08:16:27;;;;;;;12.67;11.87;;;16.40;99.90;;;;;;4795939;29;20500;-51
2023/03/24 08:18:56;;;;;;;12.67;11.97;;;16.50;99.90;;;;;;4795243;29;20214;-45
2023/03/24 08:21:23;;;;;;;12.60;12.00;;;16.60;99.40;;;;;;4795433;29;20672;-48
2023/03/24 08:23:49;;;;;;;12.93;12.33;;;16.80;98.30;;;;;;4794715;29;20447;-48
2023/03/24 08:26:15;;;;;;;13.30;12.60;;;17.00;97.90;;;;;;4794940;29;20498;-46
2023/03/24 08:28:40;;;;;;;11.80;11.20;;;17.10;96.30;;;;;;4795164;29;20190;-48
2023/03/24 08:31:06;;;;;;;13.47;12.77;;;17.20;96.00;;;;;;4795371;29;20516;-48
2023/03/24 08:33:33;;;;;;;12.30;11.70;;;17.20;95.90;;;;;;4795329;29;20198;-50
2023/03/24 08:35:59;;;;;;;13.20;12.50;;;17.40;95.80;;;;;;4794894;29;20487;-48
2023/03/24 08:38:32;;;;;;;12.90;12.07;;;17.40;95.00;;;;;;4795175;29;20420;-46
2023/03/24 08:41:00;;;;;;;13.20;12.50;;;17.50;95.10;;;;;;4795728;29;20436;-49
2023/03/24 08:43:28;;;;;;;12.70;12.10;;;17.50;94.50;;;;;;4795517;29;20436;-47
2023/03/24 08:45:55;;;;;;;13.47;12.60;;;17.60;95.20;;;;;;4795237;29;20931;-50
2023/03/24 08:48:22;;;;;;;13.10;12.40;;;17.50;94.60;;;;;;4794673;29;20499;-47
2023/03/24 08:50:47;;;;;;;12.90;12.20;;;17.60;94.60;;;;;;4795156;29;20511;-50
2023/03/24 08:53:13;;;;;;;13.37;12.63;;;17.60;94.30;;;;;;4793359;29;20432;-48
2023/03/24 08:55:41;;;;;;;11.27;10.77;;;17.50;94.50;;;;;;4794950;29;20501;-48
2023/03/24 08:58:11;;;;;;;12.60;11.90;;;17.40;94.20;;;;;;4795106;29;20197;-48
2023/03/24 09:00:37;;;;;;;12.77;12.03;;;17.40;94.40;;;;;;4794438;29;20500;-44
2023/03/24 09:03:05;;;;;;;11.97;11.37;;;17.40;94.30;;;;;;4794820;29;20863;-50
2023/03/24 09:05:31;;;;;;;13.30;12.57;;;17.40;94.20;;;;;;4794779;29;20565;-45
2023/03/24 09:07:59;;;;;;;11.90;11.20;;;17.40;94.30;;;;;;4795024;29;20601;-46
2023/03/24 09:10:25;;;;;;;12.00;11.40;;;17.50;95.50;;;;;;4794920;29;20455;-48
2023/03/24 09:12:51;;;;;;;12.80;12.10;;;17.50;95.40;;;;;;4794628;29;20519;-46
2023/03/24 09:15:17;;;;;;;12.30;11.70;;;17.40;95.30;;;;;;4794721;29;20428;-49
2023/03/24 09:17:43;;;;;;;12.80;12.10;;;17.30;95.00;;;;;;4793884;29;20197;-48
2023/03/24 09:20:12;;;;;;;13.63;13.00;;;17.40;95.90;;;;;;4794432;29;20769;-47
2023/03/24 09:22:40;;;;;;;13.87;13.10;;;17.40;96.00;;;;;;4794238;29;20519;-44
2023/03/24 09:25:06;;;;;;;12.20;11.60;;;17.30;96.30;;;;;;4794060;29;20466;-49
2023/03/24 09:27:32;;;;;;;12.27;11.57;;;17.20;96.70;;;;;;4794389;29;20581;-49
2023/03/24 09:29:57;;;;;;;13.57;12.87;;;17.20;97.30;;;;;;4794362;29;20440;-46
2023/03/24 09:32:23;;;;;;;12.13;11.53;;;17.20;95.70;;;;;;4794561;29;20191;-44
2023/03/24 09:34:49;;;;;;;12.23;11.33;;;17.20;95.90;;;;;;4794046;29;20198;-48
2023/03/24 09:37:15;;;;;;;12.67;11.97;;;17.30;96.20;;;;;;4778163;29;20222;-49
2023/03/24 09:39:40;;;;;;;13.13;12.53;;;17.50;95.70;;;;;;4793631;29;20202;-47
2023/03/24 09:42:09;;;;;;;12.90;12.30;;;17.50;95.00;;;;;;4777651;29;20214;-48
2023/03/24 09:44:44;;;;;;;13.07;12.37;;;17.70;94.80;;;;;;4794171;29;20537;-46
2023/03/24 09:47:28;;;;;;;12.93;12.33;;;17.70;94.60;;;;;;4793178;29;20512;-48
2023/03/24 09:49:57;;;;;;;13.50;12.80;;;17.80;93.70;;;;;;4794005;29;20821;-47
2023/03/24 09:52:28;;;;;;;11.93;11.33;;;17.80;94.40;;;;;;4793423;29;20460;-47
2023/03/24 09:54:58;;;;;;;12.30;11.63;;;17.70;94.30;;;;;;4792951;29;20458;-48
2023/03/24 09:57:26;;;;;;;12.63;11.93;;;17.80;93.80;;;;;;4793564;29;20529;-42
2023/03/24 09:59:52;;;;;;;12.70;11.90;;;17.90;94.00;;;;;;4793936;29;20950;-44
2023/03/24 10:02:20;;;;;;;12.97;12.27;;;18.00;93.40;;;;;;4794365;29;20420;-41
2023/03/24 10:04:46;;;;;;;12.13;11.50;;;18.30;93.40;;;;;;4793353;29;20195;-44
2023/03/24 10:07:26;;;;;;;12.70;12.10;;;18.50;92.60;;;;;;4793601;29;20428;-42
2023/03/24 10:09:58;;;;;;;11.03;10.53;;;18.60;91.50;;;;;;4793618;29;20442;-40
2023/03/24 10:12:37;;;;;;;11.70;11.10;;;18.50;91.40;;;;;;4793692;29;20444;-42
2023/03/24 10:15:15;;;;;;;11.87;11.27;;;18.50;91.50;;;;;;4793657;29;20530;-40
2023/03/24 10:17:55;;;;;;;11.80;11.23;;;18.40;90.10;;;;;;4793203;29;20455;-42
2023/03/24 10:20:34;;;;;;;11.53;10.97;;;18.40;90.50;;;;;;4793728;29;20455;-41
2023/03/24 10:23:25;;;;;;;10.17;9.67;;;18.40;90.80;;;;;;4793904;29;21271;-40
2023/03/24 10:26:13;;;;;;;10.90;10.40;;;18.30;91.00;;;;;;4793755;29;20420;-40
2023/03/24 10:29:11;;;;;;;10.43;10.03;;;18.10;90.10;;;;;;4793814;29;20933;-41
2023/03/24 10:31:39;;;;;;;10.13;9.67;;;18.10;89.40;;;;;;4793923;29;20454;-43
2023/03/24 10:34:09;;;;;;;9.73;9.33;;;18.10;88.00;;;;;;4793462;29;20416;-40
2023/03/24 10:36:37;;;;;;;10.07;9.67;;;18.10;87.20;;;;;;4777650;29;20491;-41
2023/03/24 10:39:02;;;;;;;9.93;9.43;;;18.10;86.20;;;;;;4793246;29;20423;-43
2023/03/24 10:41:30;;;;;;;9.70;9.30;;;18.10;84.90;;;;;;4793430;29;20428;-41
2023/03/24 10:43:57;;;;;;;9.93;9.53;;;18.30;85.40;;;;;;4783667;29;20669;-45
2023/03/24 10:46:30;;;;;;;10.30;9.90;;;18.30;85.30;;;;;;4791676;29;20470;-40
2023/03/24 10:49:14;;;;;;;10.40;10.00;;;18.50;84.70;;;;;;4792767;29;20444;-44
2023/03/24 10:51:47;;;;;;;10.27;9.87;;;18.60;84.10;;;;;;4793493;29;20791;-40
2023/03/24 10:54:27;;;;;;;9.70;9.30;;;18.70;83.40;;;;;;4793310;29;20435;-42
2023/03/24 10:56:59;;;;;;;9.77;9.27;;;19.00;82.70;;;;;;4793298;29;20550;-44
2023/03/24 10:59:48;;;;;;;9.07;8.77;;;19.20;83.50;;;;;;4792960;29;20469;-41
2023/03/24 11:02:23;;;;;;;10.00;9.60;;;19.20;81.30;;;;;;4793318;29;20739;-43
2023/03/24 11:05:04;;;;;;;10.10;9.70;;;19.40;81.70;;;;;;4776332;29;20471;-42
2023/03/24 11:07:38;;;;;;;9.30;8.90;;;19.60;80.30;;;;;;4792538;29;20442;-43
2023/03/24 11:10:10;;;;;;;9.87;9.47;;;19.70;79.50;;;;;;4793158;29;20431;-44
2023/03/24 11:12:38;;;;;;;10.70;10.20;;;19.40;79.60;;;;;;4792967;29;20439;-41
2023/03/24 11:15:20;;;;;;;11.27;10.77;;;19.20;79.60;;;;;;4793236;29;20439;-39
2023/03/24 11:18:07;;;;;;;10.40;9.90;;;19.00;79.80;;;;;;4792387;29;20470;-41
2023/03/24 11:20:43;;;;;;;9.73;9.33;;;18.90;82.10;;;;;;4792158;29;20456;-41
2023/03/24 11:23:30;;;;;;;10.03;9.63;;;18.90;79.70;;;;;;4793054;29;20569;-39
2023/03/24 11:26:11;;;;;;;9.67;9.27;;;18.80;78.90;;;;;;4775017;29;20432;-40
2023/03/24 11:28:40;;;;;;;9.57;9.27;;;18.70;79.60;;;;;;4792444;29;20580;-41
2023/03/24 11:31:10;;;;;;;11.07;10.57;;;18.50;81.00;;;;;;4792777;29;20453;-40
2023/03/24 11:33:47;;;;;;;10.33;9.93;;;18.50;81.60;;;;;;4776649;29;21098;-41
2023/03/24 11:36:34;;;;;;;10.10;9.70;;;18.40;81.80;;;;;;4792456;29;20495;-39
2023/03/24 11:39:16;;;;;;;10.13;9.73;;;18.50;82.20;;;;;;4792368;29;20431;-41
2023/03/24 11:41:50;;;;;;;9.33;8.93;;;18.60;82.30;;;;;;4792639;29;20455;-41
2023/03/24 11:44:24;;;;;;;10.00;9.60;;;18.40;81.90;;;;;;4792721;29;20497;-43
2023/03/24 11:46:57;;;;;;;9.50;9.10;;;18.50;81.30;;;;;;4790979;29;20455;-41
2023/03/24 11:49:27;;;;;;;10.00;9.60;;;18.60;81.80;;;;;;4791892;29;20443;-41
2023/03/24 11:51:54;;;;;;;9.80;9.40;;;18.80;81.40;;;;;;4792993;29;20952;-41
2023/03/24 11:54:35;;;;;;;10.30;9.90;;;19.10;80.60;;;;;;4792058;29;20451;-42
2023/03/24 11:57:11;;;;;;;10.93;10.43;;;19.20;80.00;;;;;;4792184;29;20512;-43
2023/03/24 11:59:40;;;;;;;9.67;9.17;;;19.30;78.60;;;;;;4792627;29;20938;-40
2023/03/24 12:02:36;;;;;;;9.60;9.20;;;19.40;78.70;;;;;;4792291;29;20439;-39
2023/03/24 12:05:18;;;;;;;10.87;10.37;;;19.20;78.50;;;;;;4792755;29;20537;-42
2023/03/24 12:08:18;;;;;;;8.13;7.83;;;19.10;80.20;;;;;;4792555;29;20476;-43
2023/03/24 12:11:07;;;;;;;10.50;10.10;;;18.80;79.80;;;;;;4793390;29;20436;-41
2023/03/24 12:13:39;;;;;;;9.83;9.43;;;18.60;81.00;;;;;;4795458;29;20504;-43
2023/03/24 12:16:30;;;;;;;9.53;9.23;;;18.60;81.80;;;;;;4795562;29;20505;-41
2023/03/24 12:19:33;;;;;;;9.80;9.40;;;18.60;81.30;;;;;;4794532;29;20431;-41
2023/03/24 12:22:35;;;;;;;9.70;9.20;;;18.80;81.70;;;;;;4796259;29;20759;-42
2023/03/24 12:25:03;;;;;;;9.57;9.17;;;19.10;79.30;;;;;;4795468;29;20451;-41
2023/03/24 12:27:47;;;;;;;9.47;9.07;;;19.60;78.90;;;;;;4795001;29;20427;-40
2023/03/24 12:30:34;;;;;;;9.23;8.93;;;19.70;77.10;;;;;;4795573;29;20453;-43
2023/03/24 12:33:16;;;;;;;10.20;9.80;;;19.50;77.40;;;;;;4795832;29;20439;-40
2023/03/24 12:36:10;;;;;;;10.00;9.60;;;19.50;77.80;;;;;;4795106;29;20682;-41
2023/03/24 12:38:46;;;;;;;9.60;9.10;;;19.50;78.30;;;;;;4795641;29;20467;-41
2023/03/24 12:41:29;;;;;;;9.40;9.10;;;19.20;78.50;;;;;;4795120;29;20510;-41
2023/03/24 12:44:34;;;;;;;10.17;9.77;;;18.70;78.80;;;;;;4794990;29;20443;-40
2023/03/24 12:47:40;;;;;;;8.50;8.10;;;18.20;80.00;;;;;;4758186;29;21023;-41
2023/03/24 12:50:20;;;;;;;9.37;9.07;;;18.00;81.70;;;;;;4795127;29;20448;-40
2023/03/24 12:52:57;;;;;;;10.10;9.60;;;17.80;83.10;;;;;;4794855;29;21029;-41
2023/03/24 12:55:48;;;;;;;10.30;9.90;;;17.70;83.90;;;;;;4794671;29;20420;-41
2023/03/24 12:58:25;;;;;;;9.30;8.90;;;17.70;84.80;;;;;;4794730;29;20927;-41